sensor_id;sensor_type;location;lat;lon;timestamp;pressure;altitude;pressure_sealevel;temperature;humidity
4410;BME280;2218;51.408;7.208;2023-02-14T00:01:23;101604.47;;;18.60;41.02
4410;BME280;2218;51.408;7.208;2023-02-14T00:03:50;101600.94;;;18.59;41.06
4410;BME280;2218;51.408;7.208;2023-02-14T00:06:17;101598.38;;;18.58;40.98
4410;BME280;2218;51.408;7.208;2023-02-14T00:08:44;101603.63;;;18.58;40.92
4410;BME280;2218;51.408;7.208;2023-02-14T00:11:12;101599.22;;;18.58;41.12
4410;BME280;2218;51.408;7.208;2023-02-14T00:13:39;101598.44;;;18.56;41.01
4410;BME280;2218;51.408;7.208;2023-02-14T00:16:27;101600.22;;;18.56;40.90
4410;BME280;2218;51.408;7.208;2023-02-14T00:18:53;101600.22;;;18.56;40.76
4410;BME280;2218;51.408;7.208;2023-02-14T00:21:29;101597.63;;;18.54;40.82
4410;BME280;2218;51.408;7.208;2023-02-14T00:23:57;101598.50;;;18.55;40.76
4410;BME280;2218;51.408;7.208;2023-02-14T00:26:24;101601.13;;;18.55;40.71
4410;BME280;2218;51.408;7.208;2023-02-14T00:28:51;101590.63;;;18.53;41.02
4410;BME280;2218;51.408;7.208;2023-02-14T00:31:18;101591.50;;;18.54;40.89
4410;BME280;2218;51.408;7.208;2023-02-14T00:33:46;101589.78;;;18.53;40.68
4410;BME280;2218;51.408;7.208;2023-02-14T00:36:13;101590.63;;;18.53;40.59
4410;BME280;2218;51.408;7.208;2023-02-14T00:38:40;101588.06;;;18.52;40.61
4410;BME280;2218;51.408;7.208;2023-02-14T00:41:07;101588.06;;;18.52;40.81
4410;BME280;2218;51.408;7.208;2023-02-14T00:43:34;101587.28;;;18.50;40.55
4410;BME280;2218;51.408;7.208;2023-02-14T00:46:01;101595.19;;;18.50;40.76
4410;BME280;2218;51.408;7.208;2023-02-14T00:48:28;101598.69;;;18.49;40.89
4410;BME280;2218;51.408;7.208;2023-02-14T00:50:56;101601.34;;;18.49;40.68
4410;BME280;2218;51.408;7.208;2023-02-14T00:53:22;101601.34;;;18.49;40.52
4410;BME280;2218;51.408;7.208;2023-02-14T00:55:49;101604.81;;;18.49;40.51
4410;BME280;2218;51.408;7.208;2023-02-14T00:58:16;101602.25;;;18.48;40.55
4410;BME280;2218;51.408;7.208;2023-02-14T01:00:43;101600.53;;;18.47;40.43
4410;BME280;2218;51.408;7.208;2023-02-14T01:03:10;101596.13;;;18.47;40.65
4410;BME280;2218;51.408;7.208;2023-02-14T01:05:37;101604.97;;;18.46;40.50
4410;BME280;2218;51.408;7.208;2023-02-14T01:08:05;101611.06;;;18.47;40.50
4410;BME280;2218;51.408;7.208;2023-02-14T01:10:32;101609.38;;;18.46;40.51
4410;BME280;2218;51.408;7.208;2023-02-14T01:13:01;101604.97;;;18.46;40.49
4410;BME280;2218;51.408;7.208;2023-02-14T01:15:29;101605.88;;;18.45;40.63
4410;BME280;2218;51.408;7.208;2023-02-14T01:17:58;101601.50;;;18.44;40.30
4410;BME280;2218;51.408;7.208;2023-02-14T01:20:26;101606.75;;;18.44;40.56
4410;BME280;2218;51.408;7.208;2023-02-14T01:22:54;101598.94;;;18.43;40.33
4410;BME280;2218;51.408;7.208;2023-02-14T01:25:22;101600.78;;;18.41;40.51
4410;BME280;2218;51.408;7.208;2023-02-14T01:27:50;101599.84;;;18.42;40.81
4410;BME280;2218;51.408;7.208;2023-02-14T01:30:17;101598.13;;;18.41;40.57
4410;BME280;2218;51.408;7.208;2023-02-14T01:32:45;101599.03;;;18.40;40.55
4410;BME280;2218;51.408;7.208;2023-02-14T01:35:12;101599.91;;;18.40;40.51
4410;BME280;2218;51.408;7.208;2023-02-14T01:37:39;101597.31;;;18.39;40.51
4410;BME280;2218;51.408;7.208;2023-02-14T01:40:09;101597.31;;;18.39;40.33
4410;BME280;2218;51.408;7.208;2023-02-14T01:42:38;101591.19;;;18.38;40.63
4410;BME280;2218;51.408;7.208;2023-02-14T01:45:14;101598.25;;;18.38;40.26
4410;BME280;2218;51.408;7.208;2023-02-14T01:47:45;101600.88;;;18.38;40.39
4410;BME280;2218;51.408;7.208;2023-02-14T01:50:22;101598.31;;;18.36;40.15
4410;BME280;2218;51.408;7.208;2023-02-14T01:52:56;101603.56;;;18.36;40.57
4410;BME280;2218;51.408;7.208;2023-02-14T01:55:31;101597.44;;;18.36;40.23
4410;BME280;2218;51.408;7.208;2023-02-14T01:58:05;101600.97;;;18.34;40.45
4410;BME280;2218;51.408;7.208;2023-02-14T02:00:34;101597.44;;;18.36;40.06
4410;BME280;2218;51.408;7.208;2023-02-14T02:03:20;101590.44;;;18.34;40.11
4410;BME280;2218;51.408;7.208;2023-02-14T02:05:52;101600.09;;;18.34;40.38
4410;BME280;2218;51.408;7.208;2023-02-14T02:08:24;101589.66;;;18.32;40.17
4410;BME280;2218;51.408;7.208;2023-02-14T02:10:51;101589.72;;;18.31;40.32
4410;BME280;2218;51.408;7.208;2023-02-14T02:13:21;101580.88;;;18.32;40.54
4410;BME280;2218;51.408;7.208;2023-02-14T02:16:11;101585.31;;;18.31;40.31
4410;BME280;2218;51.408;7.208;2023-02-14T02:19:01;101588.00;;;18.30;40.32
4410;BME280;2218;51.408;7.208;2023-02-14T02:22:01;101582.72;;;18.30;40.33
4410;BME280;2218;51.408;7.208;2023-02-14T02:24:47;101575.69;;;18.30;40.38
4410;BME280;2218;51.408;7.208;2023-02-14T02:27:33;101571.31;;;18.29;40.46
4410;BME280;2218;51.408;7.208;2023-02-14T02:30:41;101574.88;;;18.28;40.14
4410;BME280;2218;51.408;7.208;2023-02-14T02:37:09;101563.47;;;18.28;40.25
4410;BME280;2218;51.408;7.208;2023-02-14T02:40:05;101556.44;;;18.28;39.92
4410;BME280;2218;51.408;7.208;2023-02-14T02:42:46;101555.66;;;18.26;40.18
4410;BME280;2218;51.408;7.208;2023-02-14T02:45:29;101553.03;;;18.26;40.20
4410;BME280;2218;51.408;7.208;2023-02-14T02:48:08;101552.16;;;18.26;40.20
4410;BME280;2218;51.408;7.208;2023-02-14T02:50:41;101553.03;;;18.26;40.34
4410;BME280;2218;51.408;7.208;2023-02-14T02:53:37;101553.94;;;18.25;40.23
4410;BME280;2218;51.408;7.208;2023-02-14T02:56:13;101559.22;;;18.25;40.21
4410;BME280;2218;51.408;7.208;2023-02-14T02:59:05;101552.19;;;18.24;40.29
4410;BME280;2218;51.408;7.208;2023-02-14T03:01:49;101560.09;;;18.24;40.00
4410;BME280;2218;51.408;7.208;2023-02-14T03:04:19;101553.06;;;18.25;40.14
4410;BME280;2218;51.408;7.208;2023-02-14T03:07:05;101557.47;;;18.24;40.27
4410;BME280;2218;51.408;7.208;2023-02-14T03:09:55;101559.22;;;18.25;40.03
4410;BME280;2218;51.408;7.208;2023-02-14T03:13:04;101553.94;;;18.25;40.02
4410;BME280;2218;51.408;7.208;2023-02-14T03:15:49;101553.06;;;18.25;40.09
4410;BME280;2218;51.408;7.208;2023-02-14T03:21:41;101557.38;;;18.27;39.80
4410;BME280;2218;51.408;7.208;2023-02-14T03:24:18;101545.91;;;18.28;40.12
4410;BME280;2218;51.408;7.208;2023-02-14T03:27:00;101552.88;;;18.29;39.95
4410;BME280;2218;51.408;7.208;2023-02-14T03:29:42;101546.75;;;18.30;39.88
4410;BME280;2218;51.408;7.208;2023-02-14T03:32:18;101547.59;;;18.31;39.89
4410;BME280;2218;51.408;7.208;2023-02-14T03:34:58;101555.44;;;18.32;39.85
4410;BME280;2218;51.408;7.208;2023-02-14T03:37:33;101557.13;;;18.33;39.96
4410;BME280;2218;51.408;7.208;2023-02-14T03:40:08;101547.53;;;18.32;39.97
4410;BME280;2218;51.408;7.208;2023-02-14T03:42:43;101551.88;;;18.33;40.13
4410;BME280;2218;51.408;7.208;2023-02-14T03:45:17;101550.94;;;18.34;39.76
4410;BME280;2218;51.408;7.208;2023-02-14T03:47:48;101552.72;;;18.34;39.66
4410;BME280;2218;51.408;7.208;2023-02-14T03:50:19;101548.31;;;18.34;39.74
4410;BME280;2218;51.408;7.208;2023-02-14T03:52:49;101540.41;;;18.34;40.02
4410;BME280;2218;51.408;7.208;2023-02-14T03:55:25;101544.81;;;18.36;39.73
4410;BME280;2218;51.408;7.208;2023-02-14T03:58:05;101550.06;;;18.36;39.81
4410;BME280;2218;51.408;7.208;2023-02-14T04:00:37;101550.00;;;18.37;39.51
4410;BME280;2218;51.408;7.208;2023-02-14T04:03:10;101546.50;;;18.37;39.65
4410;BME280;2218;51.408;7.208;2023-02-14T04:05:39;101542.97;;;18.38;39.50
4410;BME280;2218;51.408;7.208;2023-02-14T04:08:19;101542.97;;;18.38;39.60
4410;BME280;2218;51.408;7.208;2023-02-14T04:10:46;101538.59;;;18.37;39.45
4410;BME280;2218;51.408;7.208;2023-02-14T04:13:15;101539.41;;;18.39;39.60
4410;BME280;2218;51.408;7.208;2023-02-14T04:15:42;101538.59;;;18.37;39.88
4410;BME280;2218;51.408;7.208;2023-02-14T04:18:09;101534.13;;;18.39;39.73
4410;BME280;2218;51.408;7.208;2023-02-14T04:20:54;101537.69;;;18.38;39.45
4410;BME280;2218;51.408;7.208;2023-02-14T04:23:21;101534.13;;;18.39;39.65
4410;BME280;2218;51.408;7.208;2023-02-14T04:25:47;101539.41;;;18.39;39.88
4410;BME280;2218;51.408;7.208;2023-02-14T04:28:16;101536.78;;;18.39;39.65
4410;BME280;2218;51.408;7.208;2023-02-14T04:30:43;101539.41;;;18.39;39.64
4410;BME280;2218;51.408;7.208;2023-02-14T04:33:10;101536.78;;;18.39;39.89
4410;BME280;2218;51.408;7.208;2023-02-14T04:35:37;101539.41;;;18.39;39.44
4410;BME280;2218;51.408;7.208;2023-02-14T04:38:04;101539.41;;;18.39;39.89
4410;BME280;2218;51.408;7.208;2023-02-14T04:40:31;101539.41;;;18.39;39.70
4410;BME280;2218;51.408;7.208;2023-02-14T04:42:58;101529.72;;;18.39;39.87
4410;BME280;2218;51.408;7.208;2023-02-14T04:45:27;101531.50;;;18.39;39.36
4410;BME280;2218;51.408;7.208;2023-02-14T04:47:54;101530.59;;;18.40;39.51
4410;BME280;2218;51.408;7.208;2023-02-14T04:50:21;101523.59;;;18.39;39.64
4410;BME280;2218;51.408;7.208;2023-02-14T04:52:50;101520.06;;;18.40;39.82
4410;BME280;2218;51.408;7.208;2023-02-14T04:55:17;101524.47;;;18.39;39.77
4410;BME280;2218;51.408;7.208;2023-02-14T04:57:44;101522.69;;;18.40;39.22
4410;BME280;2218;51.408;7.208;2023-02-14T05:00:13;101516.53;;;18.41;39.55
4410;BME280;2218;51.408;7.208;2023-02-14T05:02:41;101516.53;;;18.41;39.61
4410;BME280;2218;51.408;7.208;2023-02-14T05:05:08;101513.81;;;18.42;39.36
4410;BME280;2218;51.408;7.208;2023-02-14T05:07:35;101512.06;;;18.43;39.41
4410;BME280;2218;51.408;7.208;2023-02-14T05:10:03;101503.31;;;18.42;39.65
4410;BME280;2218;51.408;7.208;2023-02-14T05:12:30;101504.16;;;18.43;39.03
4410;BME280;2218;51.408;7.208;2023-02-14T05:14:57;101493.63;;;18.43;39.24
4410;BME280;2218;51.408;7.208;2023-02-14T05:17:24;101501.44;;;18.44;38.99
4410;BME280;2218;51.408;7.208;2023-02-14T05:19:52;101493.53;;;18.46;38.94
4410;BME280;2218;51.408;7.208;2023-02-14T05:22:19;101488.25;;;18.46;39.38
4410;BME280;2218;51.408;7.208;2023-02-14T05:24:46;101483.72;;;18.49;38.89
4410;BME280;2218;51.408;7.208;2023-02-14T05:27:12;101485.38;;;18.52;38.93
4410;BME280;2218;51.408;7.208;2023-02-14T05:29:39;101489.63;;;18.56;38.77
4410;BME280;2218;51.408;7.208;2023-02-14T05:32:06;101486.00;;;18.58;38.74
4410;BME280;2218;51.408;7.208;2023-02-14T05:34:34;101487.66;;;18.61;38.71
4410;BME280;2218;51.408;7.208;2023-02-14T05:37:02;101486.75;;;18.62;38.65
4410;BME280;2218;51.408;7.208;2023-02-14T05:39:29;101480.56;;;18.63;38.41
4410;BME280;2218;51.408;7.208;2023-02-14T05:41:56;101476.09;;;18.65;38.46
4410;BME280;2218;51.408;7.208;2023-02-14T05:44:22;101482.22;;;18.66;38.65
4410;BME280;2218;51.408;7.208;2023-02-14T05:46:49;101483.94;;;18.67;38.41
4410;BME280;2218;51.408;7.208;2023-02-14T05:49:16;101481.28;;;18.68;38.37
4410;BME280;2218;51.408;7.208;2023-02-14T05:51:43;101487.34;;;18.70;38.39
4410;BME280;2218;51.408;7.208;2023-02-14T05:54:11;101482.09;;;18.70;38.39
4410;BME280;2218;51.408;7.208;2023-02-14T05:56:38;101485.50;;;18.72;38.59
4410;BME280;2218;51.408;7.208;2023-02-14T05:59:05;101475.91;;;18.71;38.53
4410;BME280;2218;51.408;7.208;2023-02-14T06:01:32;101481.94;;;18.73;38.67
4410;BME280;2218;51.408;7.208;2023-02-14T06:03:59;101472.34;;;18.72;38.25
4410;BME280;2218;51.408;7.208;2023-02-14T06:06:26;101481.94;;;18.73;38.27
4410;BME280;2218;51.408;7.208;2023-02-14T06:08:53;101487.22;;;18.73;38.23
4410;BME280;2218;51.408;7.208;2023-02-14T06:11:21;101487.22;;;18.73;38.18
4410;BME280;2218;51.408;7.208;2023-02-14T06:13:48;101497.75;;;18.73;38.44
4410;BME280;2218;51.408;7.208;2023-02-14T06:16:15;101496.13;;;18.71;38.35
4410;BME280;2218;51.408;7.208;2023-02-14T06:18:41;101501.41;;;18.69;38.16
4410;BME280;2218;51.408;7.208;2023-02-14T06:21:08;101506.69;;;18.69;38.02
4410;BME280;2218;51.408;7.208;2023-02-14T06:23:35;101504.97;;;18.68;38.18
4410;BME280;2218;51.408;7.208;2023-02-14T06:26:02;101504.16;;;18.66;38.12
4410;BME280;2218;51.408;7.208;2023-02-14T06:28:31;101514.63;;;18.68;38.12
4410;BME280;2218;51.408;7.208;2023-02-14T06:30:57;101512.91;;;18.67;38.06
4410;BME280;2218;51.408;7.208;2023-02-14T06:33:24;101504.16;;;18.66;38.15
4410;BME280;2218;51.408;7.208;2023-02-14T06:35:53;101509.41;;;18.66;38.13
4410;BME280;2218;51.408;7.208;2023-02-14T06:38:20;101503.34;;;18.64;38.19
4410;BME280;2218;51.408;7.208;2023-02-14T06:40:47;101513.88;;;18.64;38.19
4410;BME280;2218;51.408;7.208;2023-02-14T06:43:14;101521.78;;;18.64;38.07
4410;BME280;2218;51.408;7.208;2023-02-14T06:45:42;101518.28;;;18.64;38.43
4410;BME280;2218;51.408;7.208;2023-02-14T06:48:09;101523.53;;;18.64;38.45
4410;BME280;2218;51.408;7.208;2023-02-14T06:50:36;101524.41;;;18.64;38.33
4410;BME280;2218;51.408;7.208;2023-02-14T06:53:03;101526.19;;;18.64;38.15
4410;BME280;2218;51.408;7.208;2023-02-14T06:55:30;101531.44;;;18.64;38.21
4410;BME280;2218;51.408;7.208;2023-02-14T06:57:57;101526.16;;;18.65;38.33
4410;BME280;2218;51.408;7.208;2023-02-14T07:00:24;101523.41;;;18.68;38.35
4410;BME280;2218;51.408;7.208;2023-02-14T07:02:53;101519.75;;;18.72;37.98
4410;BME280;2218;51.408;7.208;2023-02-14T07:05:20;101518.78;;;18.75;38.12
4410;BME280;2218;51.408;7.208;2023-02-14T07:07:47;101524.72;;;18.80;38.02
4410;BME280;2218;51.408;7.208;2023-02-14T07:10:15;101523.75;;;18.82;37.66
4410;BME280;2218;51.408;7.208;2023-02-14T07:12:42;101528.91;;;18.85;37.90
4410;BME280;2218;51.408;7.208;2023-02-14T07:15:13;101522.53;;;18.91;37.90
4410;BME280;2218;51.408;7.208;2023-02-14T07:17:41;101527.66;;;18.94;37.54
4410;BME280;2218;51.408;7.208;2023-02-14T07:20:11;101531.03;;;18.98;37.63
4410;BME280;2218;51.408;7.208;2023-02-14T07:22:38;101530.94;;;19.01;37.74
4410;BME280;2218;51.408;7.208;2023-02-14T07:25:06;101525.53;;;19.04;37.29
4410;BME280;2218;51.408;7.208;2023-02-14T07:27:33;101531.38;;;19.12;36.64
4410;BME280;2218;51.408;7.208;2023-02-14T07:30:00;101535.59;;;19.16;36.64
4410;BME280;2218;51.408;7.208;2023-02-14T07:32:27;101534.56;;;19.20;36.46
4410;BME280;2218;51.408;7.208;2023-02-14T07:34:54;101534.31;;;19.26;36.50
4410;BME280;2218;51.408;7.208;2023-02-14T07:37:23;101531.59;;;19.28;36.17
4410;BME280;2218;51.408;7.208;2023-02-14T07:39:50;101532.34;;;19.31;36.03
4410;BME280;2218;51.408;7.208;2023-02-14T07:42:17;101525.22;;;19.33;35.92
4410;BME280;2218;51.408;7.208;2023-02-14T07:44:44;101528.66;;;19.35;36.00
4410;BME280;2218;51.408;7.208;2023-02-14T07:47:11;101523.25;;;19.38;36.06
4410;BME280;2218;51.408;7.208;2023-02-14T07:49:38;101530.13;;;19.43;35.60
4410;BME280;2218;51.408;7.208;2023-02-14T07:52:05;101530.94;;;19.45;35.38
4410;BME280;2218;51.408;7.208;2023-02-14T07:54:33;101531.63;;;19.48;35.53
4410;BME280;2218;51.408;7.208;2023-02-14T07:57:00;101522.88;;;19.48;35.29
4410;BME280;2218;51.408;7.208;2023-02-14T07:59:27;101528.16;;;19.48;35.46
4410;BME280;2218;51.408;7.208;2023-02-14T08:01:54;101519.44;;;19.46;35.47
4410;BME280;2218;51.408;7.208;2023-02-14T08:04:21;101518.59;;;19.45;35.95
4410;BME280;2218;51.408;7.208;2023-02-14T08:06:50;101516.00;;;19.44;35.79
4410;BME280;2218;51.408;7.208;2023-02-14T08:09:17;101516.00;;;19.44;36.18
4410;BME280;2218;51.408;7.208;2023-02-14T08:11:52;101516.00;;;19.44;36.48
4410;BME280;2218;51.408;7.208;2023-02-14T08:14:37;101517.78;;;19.43;36.10
4410;BME280;2218;51.408;7.208;2023-02-14T08:17:04;101524.84;;;19.43;36.40
4410;BME280;2218;51.408;7.208;2023-02-14T08:19:33;101523.91;;;19.44;36.41
4410;BME280;2218;51.408;7.208;2023-02-14T08:22:00;101525.69;;;19.43;36.60
4410;BME280;2218;51.408;7.208;2023-02-14T08:24:27;101522.13;;;19.44;36.58
4410;BME280;2218;51.408;7.208;2023-02-14T08:26:55;101521.28;;;19.44;36.57
4410;BME280;2218;51.408;7.208;2023-02-14T08:29:23;101521.28;;;19.44;36.50
4410;BME280;2218;51.408;7.208;2023-02-14T08:31:50;101518.63;;;19.44;36.84
4410;BME280;2218;51.408;7.208;2023-02-14T08:34:18;101522.22;;;19.43;36.85
4410;BME280;2218;51.408;7.208;2023-02-14T08:36:44;101524.00;;;19.42;36.84
4410;BME280;2218;51.408;7.208;2023-02-14T08:39:12;101530.13;;;19.43;36.83
4410;BME280;2218;51.408;7.208;2023-02-14T08:41:39;101530.13;;;19.43;36.70
4410;BME280;2218;51.408;7.208;2023-02-14T08:44:07;101520.50;;;19.42;37.08
4410;BME280;2218;51.408;7.208;2023-02-14T08:46:34;101525.78;;;19.42;37.19
4410;BME280;2218;51.408;7.208;2023-02-14T08:49:01;101528.41;;;19.42;36.86
4410;BME280;2218;51.408;7.208;2023-02-14T08:51:28;101522.28;;;19.41;36.82
4410;BME280;2218;51.408;7.208;2023-02-14T08:53:55;101529.34;;;19.41;37.11
4410;BME280;2218;51.408;7.208;2023-02-14T08:56:22;101521.44;;;19.41;36.95
4410;BME280;2218;51.408;7.208;2023-02-14T08:58:51;101522.34;;;19.40;37.03
4410;BME280;2218;51.408;7.208;2023-02-14T09:01:20;101520.56;;;19.40;37.15
4410;BME280;2218;51.408;7.208;2023-02-14T09:03:47;101519.72;;;19.40;37.04
4410;BME280;2218;51.408;7.208;2023-02-14T09:06:16;101522.34;;;19.40;37.04
4410;BME280;2218;51.408;7.208;2023-02-14T09:08:44;101526.63;;;19.42;36.83
4410;BME280;2218;51.408;7.208;2023-02-14T09:11:15;101523.06;;;19.43;35.89
4410;BME280;2218;51.408;7.208;2023-02-14T09:13:44;101522.09;;;19.46;36.31
4410;BME280;2218;51.408;7.208;2023-02-14T09:16:13;101516.75;;;19.47;36.02
4410;BME280;2218;51.408;7.208;2023-02-14T09:18:43;101514.03;;;19.49;35.83
4410;BME280;2218;51.408;7.208;2023-02-14T09:21:15;101514.03;;;19.49;35.60
4410;BME280;2218;51.408;7.208;2023-02-14T09:23:43;101510.50;;;19.50;36.18
4410;BME280;2218;51.408;7.208;2023-02-14T09:26:14;101502.59;;;19.50;35.74
4410;BME280;2218;51.408;7.208;2023-02-14T09:28:42;101504.22;;;19.52;36.08
4410;BME280;2218;51.408;7.208;2023-02-14T09:31:10;101497.16;;;19.53;36.26
4410;BME280;2218;51.408;7.208;2023-02-14T09:33:38;101493.66;;;19.52;36.11
4410;BME280;2218;51.408;7.208;2023-02-14T09:36:24;101493.66;;;19.52;36.40
4410;BME280;2218;51.408;7.208;2023-02-14T09:39:09;101483.97;;;19.53;36.51
4410;BME280;2218;51.408;7.208;2023-02-14T09:42:13;101490.97;;;19.54;36.48
4410;BME280;2218;51.408;7.208;2023-02-14T09:44:49;101483.06;;;19.54;36.13
4410;BME280;2218;51.408;7.208;2023-02-14T09:47:35;101483.84;;;19.56;36.37
4410;BME280;2218;51.408;7.208;2023-02-14T09:50:14;101484.72;;;19.56;35.77
4410;BME280;2218;51.408;7.208;2023-02-14T09:52:48;101483.84;;;19.56;35.55
4410;BME280;2218;51.408;7.208;2023-02-14T09:55:17;101486.44;;;19.57;35.85
4410;BME280;2218;51.408;7.208;2023-02-14T09:58:02;101485.56;;;19.57;36.02
4410;BME280;2218;51.408;7.208;2023-02-14T10:00:36;101487.28;;;19.59;35.67
4410;BME280;2218;51.408;7.208;2023-02-14T10:03:41;101475.78;;;19.60;35.53
4410;BME280;2218;51.408;7.208;2023-02-14T10:06:34;101485.50;;;19.58;35.91
4410;BME280;2218;51.408;7.208;2023-02-14T10:12:01;101485.56;;;19.57;36.01
4410;BME280;2218;51.408;7.208;2023-02-14T10:14:31;101479.38;;;19.58;35.83
4410;BME280;2218;51.408;7.208;2023-02-14T10:17:11;101477.66;;;19.57;35.92
4410;BME280;2218;51.408;7.208;2023-02-14T10:19:43;101475.88;;;19.57;35.56
4410;BME280;2218;51.408;7.208;2023-02-14T10:22:15;101486.34;;;19.59;35.99
4410;BME280;2218;51.408;7.208;2023-02-14T10:24:50;101482.00;;;19.58;36.05
4410;BME280;2218;51.408;7.208;2023-02-14T10:27:29;101476.72;;;19.58;36.26
4410;BME280;2218;51.408;7.208;2023-02-14T10:29:58;101482.84;;;19.58;36.26
4410;BME280;2218;51.408;7.208;2023-02-14T10:32:34;101480.22;;;19.58;36.45
4410;BME280;2218;51.408;7.208;2023-02-14T10:35:13;101479.38;;;19.58;36.33
4410;BME280;2218;51.408;7.208;2023-02-14T10:37:59;101483.72;;;19.59;36.36
4410;BME280;2218;51.408;7.208;2023-02-14T10:40:48;101479.38;;;19.58;36.36
4410;BME280;2218;51.408;7.208;2023-02-14T10:43:32;101482.00;;;19.58;36.46
4410;BME280;2218;51.408;7.208;2023-02-14T10:46:11;101473.16;;;19.59;36.64
4410;BME280;2218;51.408;7.208;2023-02-14T10:48:52;101478.44;;;19.59;36.66
4410;BME280;2218;51.408;7.208;2023-02-14T10:51:28;101467.03;;;19.58;36.64
4410;BME280;2218;51.408;7.208;2023-02-14T10:54:15;101463.53;;;19.58;36.80
4410;BME280;2218;51.408;7.208;2023-02-14T10:56:52;101466.19;;;19.58;36.71
4410;BME280;2218;51.408;7.208;2023-02-14T10:59:25;101466.19;;;19.58;36.82
4410;BME280;2218;51.408;7.208;2023-02-14T11:01:54;101456.47;;;19.58;36.35
4410;BME280;2218;51.408;7.208;2023-02-14T11:04:24;101458.25;;;19.59;36.66
4410;BME280;2218;51.408;7.208;2023-02-14T11:06:51;101454.69;;;19.59;36.24
4410;BME280;2218;51.408;7.208;2023-02-14T11:09:19;101453.84;;;19.58;36.24
4410;BME280;2218;51.408;7.208;2023-02-14T11:11:50;101457.34;;;19.59;36.17
4410;BME280;2218;51.408;7.208;2023-02-14T11:14:23;101446.78;;;19.59;36.41
4410;BME280;2218;51.408;7.208;2023-02-14T11:16:52;101449.44;;;19.59;36.20
4410;BME280;2218;51.408;7.208;2023-02-14T11:19:24;101442.44;;;19.58;36.12
4410;BME280;2218;51.408;7.208;2023-02-14T11:21:54;101434.53;;;19.58;36.32
4410;BME280;2218;51.408;7.208;2023-02-14T11:24:30;101439.81;;;19.58;36.37
4410;BME280;2218;51.408;7.208;2023-02-14T11:27:02;101431.88;;;19.58;36.20
4410;BME280;2218;51.408;7.208;2023-02-14T11:29:35;101434.53;;;19.58;36.44
4410;BME280;2218;51.408;7.208;2023-02-14T11:32:11;101434.53;;;19.59;36.33
4410;BME280;2218;51.408;7.208;2023-02-14T11:34:43;101436.25;;;19.59;36.49
4410;BME280;2218;51.408;7.208;2023-02-14T11:37:27;101430.97;;;19.59;36.60
4410;BME280;2218;51.408;7.208;2023-02-14T11:39:57;101415.13;;;19.59;36.56
4410;BME280;2218;51.408;7.208;2023-02-14T11:42:44;101425.69;;;19.59;36.49
4410;BME280;2218;51.408;7.208;2023-02-14T11:45:31;101416.06;;;19.59;36.47
4410;BME280;2218;51.408;7.208;2023-02-14T11:48:18;101408.16;;;19.58;36.37
4410;BME280;2218;51.408;7.208;2023-02-14T11:50:55;101408.16;;;19.59;36.76
4410;BME280;2218;51.408;7.208;2023-02-14T11:53:25;101401.09;;;19.60;36.54
4410;BME280;2218;51.408;7.208;2023-02-14T11:55:55;101395.81;;;19.60;36.68
4410;BME280;2218;51.408;7.208;2023-02-14T11:58:37;101385.25;;;19.60;36.75
4410;BME280;2218;51.408;7.208;2023-02-14T12:01:05;101379.13;;;19.59;36.76
4410;BME280;2218;51.408;7.208;2023-02-14T12:03:44;101377.28;;;19.61;36.64
4410;BME280;2218;51.408;7.208;2023-02-14T12:06:23;101377.28;;;19.61;36.91
4410;BME280;2218;51.408;7.208;2023-02-14T12:08:51;101370.28;;;19.60;36.64
4410;BME280;2218;51.408;7.208;2023-02-14T12:11:37;101376.41;;;19.61;37.01
4410;BME280;2218;51.408;7.208;2023-02-14T12:14:21;101375.47;;;19.62;36.89
4410;BME280;2218;51.408;7.208;2023-02-14T12:16:57;101372.84;;;19.62;37.00
4410;BME280;2218;51.408;7.208;2023-02-14T12:19:35;101366.72;;;19.61;36.83
4410;BME280;2218;51.408;7.208;2023-02-14T12:22:13;101365.78;;;19.62;36.96
4410;BME280;2218;51.408;7.208;2023-02-14T12:24:51;101364.00;;;19.63;36.97
4410;BME280;2218;51.408;7.208;2023-02-14T12:27:24;101353.44;;;19.63;37.25
4410;BME280;2218;51.408;7.208;2023-02-14T12:30:01;101335.00;;;19.63;36.97
4410;BME280;2218;51.408;7.208;2023-02-14T12:32:33;101341.97;;;19.64;37.02
4410;BME280;2218;51.408;7.208;2023-02-14T12:35:11;101343.75;;;19.63;37.21
4410;BME280;2218;51.408;7.208;2023-02-14T12:37:54;101342.91;;;19.63;37.41
4410;BME280;2218;51.408;7.208;2023-02-14T12:40:38;101339.34;;;19.64;37.19
4410;BME280;2218;51.408;7.208;2023-02-14T12:43:41;101334.06;;;19.64;37.24
4410;BME280;2218;51.408;7.208;2023-02-14T12:46:29;101328.78;;;19.64;37.11
4410;BME280;2218;51.408;7.208;2023-02-14T12:49:36;101335.78;;;19.65;37.24
4410;BME280;2218;51.408;7.208;2023-02-14T12:52:32;101327.88;;;19.65;37.08
4410;BME280;2218;51.408;7.208;2023-02-14T12:55:28;101323.50;;;19.64;37.18
4410;BME280;2218;51.408;7.208;2023-02-14T12:58:17;101325.25;;;19.65;37.41
4410;BME280;2218;51.408;7.208;2023-02-14T13:01:04;101311.13;;;19.66;37.25
4410;BME280;2218;51.408;7.208;2023-02-14T13:04:01;101318.19;;;19.66;37.13
4410;BME280;2218;51.408;7.208;2023-02-14T13:06:38;101311.97;;;19.67;37.23
4410;BME280;2218;51.408;7.208;2023-02-14T13:09:22;101313.69;;;19.68;37.43
4410;BME280;2218;51.408;7.208;2023-02-14T13:12:09;101305.72;;;19.69;37.65
4410;BME280;2218;51.408;7.208;2023-02-14T13:14:55;101303.84;;;19.71;37.04
4410;BME280;2218;51.408;7.208;2023-02-14T13:17:34;101297.56;;;19.74;36.36
4410;BME280;2218;51.408;7.208;2023-02-14T13:20:24;101294.88;;;19.75;36.79
4410;BME280;2218;51.408;7.208;2023-02-14T13:23:02;101295.72;;;19.76;36.55
4410;BME280;2218;51.408;7.208;2023-02-14T13:25:35;101291.31;;;19.76;36.40
4410;BME280;2218;51.408;7.208;2023-02-14T13:28:11;101283.31;;;19.78;36.02
4410;BME280;2218;51.408;7.208;2023-02-14T13:30:38;101289.44;;;19.78;35.83
4410;BME280;2218;51.408;7.208;2023-02-14T13:33:22;101280.63;;;19.79;36.04
4410;BME280;2218;51.408;7.208;2023-02-14T13:35:55;101280.63;;;19.79;36.09
4410;BME280;2218;51.408;7.208;2023-02-14T13:38:25;101278.00;;;19.79;36.15
4410;BME280;2218;51.408;7.208;2023-02-14T13:40:54;101276.19;;;19.80;36.00
4410;BME280;2218;51.408;7.208;2023-02-14T13:43:46;101266.50;;;19.80;36.29
4410;BME280;2218;51.408;7.208;2023-02-14T13:46:14;101262.78;;;19.84;35.44
4410;BME280;2218;51.408;7.208;2023-02-14T13:48:55;101256.59;;;19.85;34.87
4410;BME280;2218;51.408;7.208;2023-02-14T13:51:43;101250.38;;;19.86;34.42